Abiquiu, New Mexico
Current Conditions -  °F | °C
As of 4:35 AM on Friday 24 Oct 2014 (Local Time) from KLAM Reporting Station
Clear Clear  
Wind Chill: 51°   Ceiling: Unl
Heat Index: 51°   Visibility: 10mi
Dew Point: 29°   Wind: 0mph
Humidity: 43%   Direction: NA
Pressure: 30.36"   Gusts: NA
Location:  36.21°N, 106.32°W
Report Text: KLAM 241035Z AUTO 00000KT 10SM CLR 11/M01 A3036 RMK AO2 T01061015
Loading
Personal Weather Stations






























Interactive Weather Map
Tropical Storm Tracking
New forecast layout! Learn more

10-Day Weather Forecast

Advertisements
Track Severe Weather on mobile